Time;durP1;ratioP1;P1;durP2;ratioP2;P2;SDS_P1;SDS_P2;PMS_P1;PMS_P2;Temp;Humidity;BMP_temperature;BMP_pressure;BME280_temperature;BME280_humidity;BME280_pressure;Samples;Min_cycle;Max_cycle;Signal;HPM_P1;HPM_P2
2022/01/03 00:00:37;;;;;;;23.58;3.38;;;11.60;81.10;;;;;;5019447;28;20029;-74
2022/01/03 00:03:06;;;;;;;18.27;3.00;;;11.60;81.20;;;;;;5018585;28;20030;-73
2022/01/03 00:05:32;;;;;;;20.48;3.17;;;11.60;81.30;;;;;;5030592;28;20250;-73
2022/01/03 00:07:58;;;;;;;15.02;2.88;;;11.60;81.50;;;;;;5046620;28;20052;-73
2022/01/03 00:10:24;;;;;;;16.63;3.60;;;11.50;81.40;;;;;;5051768;28;20398;-73
2022/01/03 00:12:50;;;;;;;18.40;3.70;;;11.50;81.20;;;;;;5052074;28;20024;-74
2022/01/03 00:15:17;;;;;;;16.48;3.22;;;11.50;81.40;;;;;;5033668;28;20028;-74
2022/01/03 00:17:44;;;;;;;17.20;4.13;;;11.50;81.30;;;;;;5042846;28;20035;-74
2022/01/03 00:20:11;;;;;;;16.98;2.83;;;11.50;81.20;;;;;;5037502;28;20511;-74
2022/01/03 00:22:43;;;;;;;18.05;3.20;;;11.50;81.00;;;;;;5046495;28;20112;-74
2022/01/03 00:25:16;;;;;;;17.83;5.30;;;11.50;80.90;;;;;;5081675;28;20041;-74
2022/01/03 00:28:14;;;;;;;14.40;2.83;;;11.50;81.10;;;;;;5043063;28;20032;-74
2022/01/03 00:30:41;;;;;;;19.10;3.22;;;11.50;81.00;;;;;;5049463;28;20138;-74
2022/01/03 00:33:08;;;;;;;21.30;3.58;;;11.50;81.00;;;;;;5033674;28;20107;-74
2022/01/03 00:35:41;;;;;;;21.08;3.70;;;11.50;81.00;;;;;;5043815;28;20033;-74
2022/01/03 00:38:12;;;;;;;32.70;5.10;;;11.50;81.30;;;;;;5032726;28;20033;-74
2022/01/03 00:40:39;;;;;;;23.30;3.40;;;11.50;81.40;;;;;;5036083;28;20107;-73
2022/01/03 00:43:05;;;;;;;27.48;4.53;;;11.50;81.50;;;;;;5034362;28;20045;-74
2022/01/03 00:45:31;;;;;;;19.65;3.42;;;11.50;81.50;;;;;;5043737;28;20035;-73
2022/01/03 00:47:57;;;;;;;27.13;4.70;;;11.50;81.70;;;;;;5043079;28;20378;-74
2022/01/03 00:50:24;;;;;;;25.40;3.75;;;11.50;81.70;;;;;;5036889;28;20041;-74
2022/01/03 00:52:51;;;;;;;22.65;4.82;;;11.50;81.60;;;;;;5030047;28;20036;-74
2022/01/03 00:55:18;;;;;;;25.88;3.85;;;11.50;81.60;;;;;;5054366;28;20541;-74
2022/01/03 00:57:54;;;;;;;22.05;4.43;;;11.50;81.60;;;;;;5049096;28;20032;-74
2022/01/03 01:00:21;;;;;;;24.98;4.45;;;11.50;81.70;;;;;;5038401;28;20017;-73
2022/01/03 01:03:09;;;;;;;28.70;4.55;;;11.50;81.70;;;;;;5029145;28;20701;-74
2022/01/03 01:05:40;;;;;;;24.20;3.95;;;11.50;81.60;;;;;;5040571;28;20040;-75
2022/01/03 01:08:06;;;;;;;23.38;4.65;;;11.50;81.60;;;;;;5044924;28;20135;-75
2022/01/03 01:10:35;;;;;;;26.25;4.13;;;11.50;81.80;;;;;;5042817;28;20022;-75
2022/01/03 01:13:03;;;;;;;30.48;4.70;;;11.50;81.70;;;;;;5045036;28;20491;-75
2022/01/03 01:15:29;;;;;;;31.80;5.00;;;11.50;81.70;;;;;;5038491;28;20404;-74
2022/01/03 01:17:56;;;;;;;23.30;3.88;;;11.50;81.60;;;;;;5044315;28;20037;-75
2022/01/03 01:20:24;;;;;;;34.85;4.85;;;11.50;81.70;;;;;;5036710;28;20062;-75
2022/01/03 01:22:51;;;;;;;28.70;4.88;;;11.50;81.60;;;;;;5050486;28;20085;-75
2022/01/03 01:27:50;;;;;;;25.80;4.63;;;11.50;81.50;;;;;;5037891;28;20044;-74
2022/01/03 01:30:21;;;;;;;35.72;4.63;;;11.50;81.50;;;;;;5033049;28;20414;-74
2022/01/03 01:33:12;;;;;;;31.50;4.55;;;11.50;81.50;;;;;;5049844;28;20471;-74
2022/01/03 01:35:46;;;;;;;34.65;5.10;;;11.50;81.50;;;;;;5031292;28;20034;-74
2022/01/03 01:38:15;;;;;;;25.30;4.50;;;11.50;81.40;;;;;;5046444;28;20122;-74
2022/01/03 01:40:50;;;;;;;24.13;3.90;;;11.50;81.20;;;;;;5045073;28;20041;-73
2022/01/03 01:43:35;;;;;;;27.17;4.78;;;11.50;81.20;;;;;;5040768;28;20373;-73
2022/01/03 01:46:05;;;;;;;23.60;4.13;;;11.50;81.10;;;;;;5028626;28;20112;-73
2022/01/03 01:48:34;;;;;;;21.83;4.35;;;11.50;81.00;;;;;;5081125;28;20040;-73
2022/01/03 01:51:00;;;;;;;21.38;3.92;;;11.50;80.80;;;;;;5049431;28;20032;-73
2022/01/03 01:53:27;;;;;;;24.23;4.32;;;11.50;80.80;;;;;;5050045;28;20021;-73
2022/01/03 01:55:55;;;;;;;25.33;4.80;;;11.50;80.80;;;;;;5040626;28;20151;-73
2022/01/03 01:58:24;;;;;;;25.73;4.80;;;11.40;80.70;;;;;;5048915;28;20561;-73
2022/01/03 02:01:00;;;;;;;23.83;4.88;;;11.40;80.70;;;;;;5048613;28;20492;-73
2022/01/03 02:03:45;;;;;;;29.60;4.40;;;11.40;80.80;;;;;;5048032;28;20040;-73
2022/01/03 02:06:36;;;;;;;28.50;4.38;;;11.40;80.80;;;;;;5036367;28;20034;-73
2022/01/03 02:09:07;;;;;;;26.85;3.97;;;11.40;80.80;;;;;;5039666;28;20029;-75
2022/01/03 02:11:50;;;;;;;26.00;4.65;;;11.40;80.80;;;;;;5037027;28;20340;-76
2022/01/03 02:14:16;;;;;;;27.60;5.13;;;11.40;80.80;;;;;;5039803;28;20109;-76
2022/01/03 02:16:42;;;;;;;25.45;4.30;;;11.40;80.90;;;;;;5041765;28;20391;-76
2022/01/03 02:19:09;;;;;;;18.77;4.15;;;11.40;81.00;;;;;;5050239;28;20432;-76
2022/01/03 02:21:35;;;;;;;26.73;3.75;;;11.40;81.00;;;;;;5037433;28;20036;-76
2022/01/03 02:24:02;;;;;;;22.98;4.57;;;11.40;80.90;;;;;;5024397;28;20030;-76
2022/01/03 02:26:29;;;;;;;25.15;3.75;;;11.40;81.40;;;;;;5051361;28;20025;-76
2022/01/03 02:28:55;;;;;;;27.33;5.75;;;11.40;80.80;;;;;;5050070;28;20027;-76
2022/01/03 02:31:22;;;;;;;24.88;4.20;;;11.40;80.80;;;;;;5046703;28;20021;-75
2022/01/03 02:33:48;;;;;;;22.08;3.85;;;11.40;81.00;;;;;;5048276;28;20082;-74
2022/01/03 02:36:15;;;;;;;24.92;3.92;;;11.40;81.00;;;;;;5037939;28;20025;-75
2022/01/03 02:38:42;;;;;;;22.50;3.78;;;11.40;81.10;;;;;;5040904;28;20116;-75
2022/01/03 02:41:07;;;;;;;25.95;4.40;;;11.40;81.10;;;;;;5030773;28;20029;-76
2022/01/03 02:43:33;;;;;;;27.98;4.07;;;11.40;81.20;;;;;;5043734;28;20526;-75
2022/01/03 02:45:59;;;;;;;23.63;4.00;;;11.30;81.30;;;;;;5037959;28;20116;-74
2022/01/03 02:48:26;;;;;;;26.13;3.58;;;11.40;81.40;;;;;;5040549;28;20042;-76
2022/01/03 02:50:53;;;;;;;28.13;4.68;;;11.30;82.00;;;;;;5040525;28;20456;-75
2022/01/03 02:53:19;;;;;;;30.58;4.15;;;11.40;81.50;;;;;;5077991;28;20025;-75
2022/01/03 02:55:45;;;;;;;29.08;4.45;;;11.40;81.40;;;;;;5052189;28;20037;-75
2022/01/03 02:58:11;;;;;;;22.70;4.47;;;11.40;81.40;;;;;;5045695;28;20064;-75
2022/01/03 03:00:45;;;;;;;25.02;4.78;;;11.30;81.40;;;;;;5039245;28;20053;-75
2022/01/03 03:03:15;;;;;;;26.83;4.50;;;11.30;81.50;;;;;;5055909;28;20480;-75
2022/01/03 03:05:42;;;;;;;24.88;3.75;;;11.30;81.50;;;;;;5047163;28;20025;-77
2022/01/03 03:08:08;;;;;;;28.08;4.90;;;11.30;81.50;;;;;;5033134;28;20132;-77
2022/01/03 03:10:34;;;;;;;25.65;3.55;;;11.30;81.50;;;;;;5041298;28;20111;-76
2022/01/03 03:13:00;;;;;;;29.42;4.80;;;11.30;81.50;;;;;;5033916;28;20535;-76
2022/01/03 03:15:26;;;;;;;27.85;3.88;;;11.30;81.50;;;;;;5051174;28;20032;-76
2022/01/03 03:17:52;;;;;;;28.25;4.03;;;11.30;81.40;;;;;;5049368;28;20395;-76
2022/01/03 03:20:26;;;;;;;21.50;4.05;;;11.30;81.50;;;;;;5032836;28;20039;-77
2022/01/03 03:22:52;;;;;;;25.63;4.15;;;11.20;81.50;;;;;;5034386;28;20092;-77
2022/01/03 03:25:30;;;;;;;32.78;5.03;;;11.20;81.60;;;;;;5039851;28;20111;-76
2022/01/03 03:28:02;;;;;;;20.95;4.05;;;11.30;81.60;;;;;;5050469;28;20025;-76
2022/01/03 03:30:31;;;;;;;24.83;4.50;;;11.30;81.60;;;;;;5041534;28;20023;-77
2022/01/03 03:33:03;;;;;;;22.52;4.28;;;11.30;81.50;;;;;;5047348;28;20024;-76
2022/01/03 03:35:29;;;;;;;30.88;5.35;;;11.20;81.50;;;;;;5044087;28;20029;-76
2022/01/03 03:37:54;;;;;;;24.45;4.57;;;11.20;81.50;;;;;;5050773;28;20048;-76
2022/01/03 03:40:20;;;;;;;22.38;4.45;;;11.20;81.50;;;;;;5040092;28;20028;-76
2022/01/03 03:42:47;;;;;;;22.23;4.10;;;11.20;81.60;;;;;;5032599;28;20126;-76
2022/01/03 03:45:13;;;;;;;25.80;4.15;;;11.20;81.70;;;;;;5050447;28;20387;-76
2022/01/03 03:47:39;;;;;;;23.52;4.45;;;11.20;81.80;;;;;;5045917;28;20033;-76
2022/01/03 03:50:05;;;;;;;26.50;4.22;;;11.20;81.80;;;;;;5051018;28;20021;-76
2022/01/03 03:52:32;;;;;;;27.70;5.00;;;11.20;81.80;;;;;;5050409;28;20036;-76
2022/01/03 03:54:58;;;;;;;21.30;3.95;;;11.20;81.90;;;;;;5035676;28;20361;-76
2022/01/03 03:57:23;;;;;;;29.65;4.47;;;11.10;82.00;;;;;;5041835;28;20162;-76
2022/01/03 03:59:50;;;;;;;28.15;4.40;;;11.10;82.00;;;;;;5046851;28;20068;-76
2022/01/03 04:02:16;;;;;;;25.00;4.55;;;11.20;82.10;;;;;;5037741;28;20430;-76
2022/01/03 04:04:41;;;;;;;25.85;4.40;;;11.20;82.00;;;;;;5046171;28;20090;-76
2022/01/03 04:07:08;;;;;;;25.02;4.72;;;11.20;81.90;;;;;;5043862;28;20067;-76
2022/01/03 04:09:33;;;;;;;26.52;4.43;;;11.20;81.80;;;;;;5055436;28;20021;-76
2022/01/03 04:11:59;;;;;;;26.63;4.00;;;11.20;81.70;;;;;;5035792;28;20032;-76
2022/01/03 04:14:25;;;;;;;24.10;4.55;;;11.10;81.70;;;;;;5044148;28;20083;-78
2022/01/03 04:16:51;;;;;;;26.30;3.92;;;11.10;81.80;;;;;;5034364;28;20044;-75
2022/01/03 04:19:16;;;;;;;24.70;4.40;;;11.10;81.80;;;;;;5050886;28;20048;-76
2022/01/03 04:21:42;;;;;;;28.00;5.00;;;11.10;81.80;;;;;;5047844;28;20033;-75
2022/01/03 04:24:10;;;;;;;22.00;4.35;;;11.10;81.80;;;;;;5039666;28;20053;-75
2022/01/03 04:26:37;;;;;;;26.38;4.15;;;11.10;81.70;;;;;;5051061;28;20103;-75
2022/01/03 04:29:03;;;;;;;30.45;4.88;;;11.10;81.60;;;;;;5045984;28;20033;-75
2022/01/03 04:31:30;;;;;;;26.83;4.25;;;11.10;81.70;;;;;;5031449;28;20036;-75
2022/01/03 04:33:56;;;;;;;25.85;4.45;;;11.10;81.60;;;;;;5039174;28;20472;-75
2022/01/03 04:36:23;;;;;;;27.40;4.60;;;11.10;81.70;;;;;;5037593;28;20053;-75
2022/01/03 04:38:49;;;;;;;28.73;5.13;;;11.10;81.50;;;;;;5035167;28;20031;-75
2022/01/03 04:41:15;;;;;;;28.33;5.07;;;11.10;81.40;;;;;;5033502;28;20033;-75
2022/01/03 04:43:41;;;;;;;18.90;3.92;;;11.10;81.50;;;;;;5044821;28;20025;-74
2022/01/03 04:46:08;;;;;;;29.95;4.93;;;11.20;81.50;;;;;;5037676;28;20075;-74
2022/01/03 04:48:38;;;;;;;22.27;3.78;;;11.20;81.60;;;;;;5046780;28;20033;-74
2022/01/03 04:51:05;;;;;;;27.90;4.38;;;11.20;81.50;;;;;;5047229;28;20375;-74
2022/01/03 04:53:31;;;;;;;24.77;4.85;;;11.20;81.60;;;;;;5049875;28;20537;-75
2022/01/03 04:55:57;;;;;;;23.95;4.38;;;11.20;81.60;;;;;;5049339;28;20033;-75
2022/01/03 04:58:22;;;;;;;24.98;4.20;;;11.20;81.50;;;;;;5036165;28;20036;-76
2022/01/03 05:00:49;;;;;;;31.05;5.28;;;11.20;81.60;;;;;;5043342;28;20526;-76
2022/01/03 05:03:15;;;;;;;32.03;6.07;;;11.20;81.60;;;;;;5043930;28;20108;-76
2022/01/03 05:05:41;;;;;;;26.55;5.10;;;11.20;81.50;;;;;;5039399;28;20036;-74
2022/01/03 05:08:07;;;;;;;29.63;6.28;;;11.20;81.50;;;;;;5035735;28;20045;-74
2022/01/03 05:10:33;;;;;;;25.35;5.35;;;11.20;82.10;;;;;;5046574;28;20025;-74
2022/01/03 05:12:59;;;;;;;28.63;4.28;;;11.10;81.60;;;;;;5052198;28;20357;-76
2022/01/03 05:15:25;;;;;;;26.02;4.63;;;11.10;81.60;;;;;;5073294;28;20037;-76
2022/01/03 05:17:55;;;;;;;27.00;4.45;;;11.10;81.50;;;;;;5047524;28;20082;-77
2022/01/03 05:20:23;;;;;;;24.73;4.28;;;11.10;81.50;;;;;;5031038;28;20045;-76
2022/01/03 05:22:49;;;;;;;24.52;4.40;;;11.10;81.40;;;;;;5048873;28;20044;-76
2022/01/03 05:25:19;;;;;;;29.92;4.63;;;11.10;81.50;;;;;;5038746;28;20516;-75
2022/01/03 05:27:46;;;;;;;34.50;5.90;;;11.10;81.40;;;;;;5047399;28;20675;-75
2022/01/03 05:30:12;;;;;;;24.77;5.05;;;11.10;81.50;;;;;;5045659;28;20104;-75
2022/01/03 05:32:38;;;;;;;29.05;5.10;;;11.10;81.60;;;;;;5043383;28;20086;-74
2022/01/03 05:35:05;;;;;;;25.95;4.63;;;11.20;81.50;;;;;;5034692;28;20107;-74
2022/01/03 05:37:31;;;;;;;24.67;4.45;;;11.20;81.40;;;;;;5048196;28;20086;-75
2022/01/03 05:39:56;;;;;;;22.63;4.28;;;11.20;81.50;;;;;;5048391;28;20017;-75
2022/01/03 05:42:22;;;;;;;25.00;4.40;;;11.20;81.50;;;;;;5037582;28;20041;-75
2022/01/03 05:44:48;;;;;;;27.85;5.18;;;11.20;81.60;;;;;;5047360;28;20468;-75
2022/01/03 05:47:13;;;;;;;26.85;4.78;;;11.20;81.70;;;;;;5046589;28;20039;-75
2022/01/03 05:49:39;;;;;;;30.02;5.20;;;11.20;81.70;;;;;;5044861;28;20557;-75
2022/01/03 05:52:05;;;;;;;27.67;4.30;;;11.20;81.80;;;;;;5048499;28;20033;-75
2022/01/03 05:54:31;;;;;;;34.50;4.95;;;11.20;81.80;;;;;;5026895;28;20110;-75
2022/01/03 05:56:56;;;;;;;23.25;4.40;;;11.20;81.70;;;;;;5032938;28;20061;-75
2022/01/03 05:59:22;;;;;;;31.48;4.93;;;11.20;81.60;;;;;;5030411;28;20436;-75
2022/01/03 06:01:48;;;;;;;29.75;5.60;;;11.20;81.70;;;;;;5035495;28;20021;-75
2022/01/03 06:04:21;;;;;;;27.88;4.40;;;11.20;81.90;;;;;;5041622;28;20120;-75
2022/01/03 06:06:54;;;;;;;;;;;11.20;81.90;;;;;;5046349;28;20040;-75
2022/01/03 06:09:21;;;;;;;18.70;3.80;;;11.20;81.90;;;;;;5043597;28;19913;-75
2022/01/03 06:11:47;;;;;;;21.92;4.65;;;11.20;81.80;;;;;;5030989;28;20034;-75
2022/01/03 06:14:16;;;;;;;25.05;3.60;;;11.20;81.90;;;;;;5039193;28;20495;-74
2022/01/03 06:16:44;;;;;;;27.85;4.90;;;11.20;82.00;;;;;;5040750;28;20037;-75
2022/01/03 06:19:09;;;;;;;26.05;4.30;;;11.20;81.80;;;;;;5038865;28;20102;-75
2022/01/03 06:21:40;;;;;;;26.90;5.28;;;11.20;81.80;;;;;;5047458;28;20045;-75
2022/01/03 06:24:10;;;;;;;27.08;4.53;;;11.20;81.80;;;;;;5039868;28;20029;-76
2022/01/03 06:26:37;;;;;;;31.88;5.13;;;11.20;81.70;;;;;;5044263;28;20034;-75
2022/01/03 06:29:06;;;;;;;21.73;4.50;;;11.20;81.70;;;;;;5040344;28;20025;-73
2022/01/03 06:31:32;;;;;;;21.65;4.22;;;11.20;82.20;;;;;;5035076;28;20132;-75
2022/01/03 06:33:58;;;;;;;28.55;4.53;;;11.20;81.70;;;;;;5047797;28;20093;-75
2022/01/03 06:36:24;;;;;;;31.27;5.75;;;11.20;81.40;;;;;;5047398;28;20045;-75
2022/01/03 06:38:50;;;;;;;25.23;6.13;;;11.20;81.40;;;;;;5045021;28;20090;-75
2022/01/03 06:41:16;;;;;;;19.67;3.97;;;11.20;81.30;;;;;;5046332;28;20024;-76
2022/01/03 06:43:41;;;;;;;20.45;4.30;;;11.20;81.20;;;;;;5048217;28;20087;-76
2022/01/03 06:46:07;;;;;;;23.55;4.55;;;11.20;81.10;;;;;;5048403;28;20025;-76
2022/01/03 06:48:33;;;;;;;22.45;4.15;;;11.20;81.10;;;;;;5044869;28;20041;-75
2022/01/03 06:50:58;;;;;;;17.20;3.75;;;11.20;81.50;;;;;;5047273;28;20025;-75
2022/01/03 06:53:24;;;;;;;23.48;4.15;;;11.30;81.10;;;;;;5052235;28;20032;-75
2022/01/03 06:55:50;;;;;;;25.70;4.22;;;11.20;80.80;;;;;;5049050;28;20392;-75
2022/01/03 06:58:15;;;;;;;24.00;4.47;;;11.20;80.50;;;;;;5052609;28;20033;-75
2022/01/03 07:00:41;;;;;;;27.02;3.78;;;11.30;80.40;;;;;;5052027;28;20502;-75
2022/01/03 07:03:07;;;;;;;27.98;4.68;;;11.30;80.40;;;;;;5042474;28;20041;-75
2022/01/03 07:05:33;;;;;;;28.65;4.82;;;11.30;80.30;;;;;;5044417;28;20160;-75
2022/01/03 07:07:59;;;;;;;23.83;3.95;;;11.30;80.30;;;;;;5044577;28;20543;-75
2022/01/03 07:10:25;;;;;;;23.67;3.97;;;11.30;80.30;;;;;;5045287;28;20308;-75
2022/01/03 07:12:53;;;;;;;25.20;3.53;;;11.30;80.20;;;;;;5044047;28;20021;-75
2022/01/03 07:20:49;;;;;;;26.88;4.55;;;11.30;79.90;;;;;;5047416;28;20186;-75
2022/01/03 07:23:16;;;;;;;20.55;3.90;;;11.30;79.80;;;;;;5056813;28;20673;-75
2022/01/03 07:25:41;;;;;;;24.45;4.65;;;11.30;79.80;;;;;;5056197;28;20056;-75
2022/01/03 07:28:07;;;;;;;27.00;4.05;;;11.30;79.90;;;;;;5032969;28;20107;-75
2022/01/03 07:30:33;;;;;;;22.85;4.00;;;11.30;79.90;;;;;;5039075;28;20037;-75
2022/01/03 07:32:59;;;;;;;30.67;3.88;;;11.30;79.90;;;;;;5051089;28;20452;-75
2022/01/03 07:35:25;;;;;;;22.73;3.90;;;11.30;80.00;;;;;;5047485;28;20321;-76
2022/01/03 07:37:53;;;;;;;23.42;4.45;;;11.30;80.20;;;;;;5052434;28;20108;-75
2022/01/03 07:40:20;;;;;;;23.55;3.47;;;11.20;80.20;;;;;;5038913;28;20025;-76
2022/01/03 07:42:46;;;;;;;29.25;4.35;;;11.30;80.40;;;;;;5034234;28;20399;-76
2022/01/03 07:45:12;;;;;;;18.83;3.75;;;11.20;80.30;;;;;;5047121;28;20033;-75
2022/01/03 07:47:38;;;;;;;23.13;4.25;;;11.20;80.40;;;;;;5038313;28;20040;-75
2022/01/03 07:50:08;;;;;;;23.30;4.90;;;11.20;80.50;;;;;;5046429;28;20353;-75
2022/01/03 07:52:34;;;;;;;17.85;3.40;;;11.30;80.50;;;;;;5050140;28;20479;-76
2022/01/03 07:54:59;;;;;;;20.60;5.05;;;11.30;80.60;;;;;;5043270;28;20047;-75
2022/01/03 07:57:25;;;;;;;24.50;3.97;;;11.30;80.60;;;;;;5046071;28;20068;-76
2022/01/03 07:59:51;;;;;;;18.23;3.78;;;11.30;80.50;;;;;;5040037;28;20087;-75
2022/01/03 08:02:18;;;;;;;25.42;4.65;;;11.30;80.50;;;;;;5056336;28;20075;-76
2022/01/03 08:04:44;;;;;;;17.17;3.83;;;11.30;80.60;;;;;;5059545;28;20488;-75
2022/01/03 08:07:10;;;;;;;18.55;3.60;;;11.30;80.50;;;;;;5055212;28;20055;-76
2022/01/03 08:09:36;;;;;;;22.33;4.00;;;11.30;80.60;;;;;;5046402;28;20023;-75
2022/01/03 08:12:02;;;;;;;24.23;3.95;;;11.30;80.60;;;;;;5036376;28;20028;-75
2022/01/03 08:14:28;;;;;;;19.95;4.18;;;11.20;80.50;;;;;;5060925;28;20037;-75
2022/01/03 08:16:53;;;;;;;20.58;3.97;;;11.20;80.60;;;;;;5047534;28;20045;-75
2022/01/03 08:19:19;;;;;;;21.50;3.75;;;11.20;80.60;;;;;;5037298;28;20033;-75
2022/01/03 08:21:45;;;;;;;21.98;4.25;;;11.20;80.50;;;;;;5031393;28;20033;-75
2022/01/03 08:24:10;;;;;;;24.20;3.83;;;11.20;80.50;;;;;;5040385;28;20033;-75
2022/01/03 08:26:38;;;;;;;21.60;4.57;;;11.30;80.40;;;;;;5044051;28;20037;-75
2022/01/03 08:29:05;;;;;;;20.55;3.55;;;11.30;80.30;;;;;;5031693;28;20033;-75
2022/01/03 08:31:31;;;;;;;24.70;3.70;;;11.30;80.20;;;;;;5052609;28;20036;-75
2022/01/03 08:33:57;;;;;;;25.13;3.95;;;11.30;80.10;;;;;;5045048;28;20083;-75
2022/01/03 08:36:24;;;;;;;22.48;4.03;;;11.30;80.10;;;;;;5044942;28;20065;-75
2022/01/03 08:38:51;;;;;;;23.20;4.05;;;11.30;80.10;;;;;;5041996;28;20096;-75
2022/01/03 08:41:16;;;;;;;19.60;3.60;;;11.30;80.00;;;;;;5044438;28;20116;-75
2022/01/03 08:43:42;;;;;;;25.88;5.07;;;11.30;80.00;;;;;;5048456;28;20155;-75
2022/01/03 08:46:08;;;;;;;20.88;3.45;;;11.30;79.90;;;;;;5044012;28;20473;-75
2022/01/03 08:48:34;;;;;;;16.70;3.17;;;11.30;79.80;;;;;;5049448;28;20045;-75
2022/01/03 08:51:00;;;;;;;23.13;4.32;;;11.30;80.00;;;;;;5045842;28;20037;-74
2022/01/03 08:53:26;;;;;;;23.10;4.07;;;11.30;79.80;;;;;;5041191;28;20037;-74
2022/01/03 08:55:55;;;;;;;18.40;3.55;;;11.30;79.70;;;;;;5043655;28;20036;-74
2022/01/03 08:58:22;;;;;;;21.13;3.88;;;11.30;79.70;;;;;;5048114;28;20036;-74
2022/01/03 09:00:48;;;;;;;18.85;3.80;;;11.30;79.80;;;;;;5028643;28;20124;-74
2022/01/03 09:03:14;;;;;;;18.85;3.53;;;11.30;79.50;;;;;;5026293;28;20061;-74
2022/01/03 09:05:39;;;;;;;24.65;5.18;;;11.30;79.40;;;;;;5038788;28;20565;-74
2022/01/03 09:08:05;;;;;;;21.02;3.63;;;11.30;79.30;;;;;;5045354;28;20081;-74
2022/01/03 09:10:31;;;;;;;22.17;3.70;;;11.30;79.20;;;;;;5048509;28;20025;-74
2022/01/03 09:12:58;;;;;;;18.77;3.58;;;11.30;79.30;;;;;;5043583;28;20029;-74
2022/01/03 09:15:24;;;;;;;21.17;4.63;;;11.40;79.40;;;;;;5045009;28;20104;-75
2022/01/03 09:17:49;;;;;;;21.95;3.63;;;11.40;79.10;;;;;;5044062;28;20156;-75
2022/01/03 09:20:16;;;;;;;20.50;3.63;;;11.40;79.10;;;;;;5039345;28;20489;-75
2022/01/03 09:22:46;;;;;;;22.58;3.75;;;11.40;79.20;;;;;;5044760;28;20138;-75
2022/01/03 09:30:34;;;;;;;23.98;4.50;;;11.40;79.20;;;;;;5042641;28;20522;-75
2022/01/03 09:33:00;;;;;;;19.60;3.92;;;11.40;79.20;;;;;;5047548;28;20025;-75
2022/01/03 09:35:25;;;;;;;29.38;4.55;;;11.40;79.30;;;;;;5046974;28;20416;-75
2022/01/03 09:37:51;;;;;;;19.92;4.88;;;11.40;79.40;;;;;;5042456;28;20029;-75
2022/01/03 09:40:17;;;;;;;27.95;4.97;;;11.40;79.60;;;;;;5035280;28;20035;-75
2022/01/03 09:42:55;;;;;;;27.48;4.13;;;11.40;79.50;;;;;;5040354;28;20044;-75
2022/01/03 09:45:21;;;;;;;20.50;3.97;;;11.40;79.40;;;;;;5043325;28;20033;-75
2022/01/03 09:47:52;;;;;;;21.00;4.35;;;11.40;79.40;;;;;;5040019;28;20384;-75
2022/01/03 09:50:21;;;;;;;23.17;4.13;;;11.40;79.50;;;;;;5039934;28;20021;-75
2022/01/03 09:52:48;;;;;;;23.60;4.82;;;11.40;79.50;;;;;;5041590;28;20116;-75
2022/01/03 09:55:16;;;;;;;23.15;4.32;;;11.40;79.50;;;;;;5035044;28;20017;-75
2022/01/03 09:57:45;;;;;;;22.77;3.70;;;11.40;79.60;;;;;;5035554;28;20301;-75
2022/01/03 10:00:22;;;;;;;22.25;4.28;;;11.40;79.60;;;;;;5037700;28;20048;-75
2022/01/03 10:02:49;;;;;;;19.83;5.53;;;11.40;79.60;;;;;;5040179;28;20033;-75
2022/01/03 10:05:15;;;;;;;17.65;4.35;;;11.50;79.70;;;;;;5034034;28;20033;-75
2022/01/03 10:07:44;;;;;;;25.65;4.57;;;11.50;79.60;;;;;;5046990;28;20514;-76
2022/01/03 10:10:11;;;;;;;24.33;4.55;;;11.50;79.20;;;;;;5042325;28;20510;-75
2022/01/03 10:12:37;;;;;;;23.92;3.95;;;11.50;79.10;;;;;;5042773;28;20025;-75
2022/01/03 10:15:05;;;;;;;28.85;4.57;;;11.50;79.20;;;;;;5032549;28;20111;-75
2022/01/03 10:17:36;;;;;;;22.50;4.10;;;11.50;79.30;;;;;;5038596;28;20135;-75
2022/01/03 10:20:03;;;;;;;19.25;4.03;;;11.60;79.20;;;;;;5059764;28;20036;-75
2022/01/03 10:22:32;;;;;;;21.77;4.30;;;11.50;79.00;;;;;;5041040;28;20035;-75
2022/01/03 10:25:01;;;;;;;16.25;3.40;;;11.60;78.70;;;;;;5052092;28;20049;-75
2022/01/03 10:27:53;;;;;;;30.83;4.72;;;11.50;78.90;;;;;;5047183;28;20060;-75
2022/01/03 10:30:40;;;;;;;16.75;3.53;;;11.60;78.90;;;;;;5074537;28;20417;-75
2022/01/03 10:33:13;;;;;;;24.58;4.85;;;11.70;78.50;;;;;;5069153;28;20070;-75
2022/01/03 10:35:45;;;;;;;29.58;3.95;;;11.70;78.10;;;;;;5031644;28;20028;-75
2022/01/03 10:38:32;;;;;;;24.80;4.10;;;11.80;77.60;;;;;;5040177;28;20051;-75
2022/01/03 10:41:12;;;;;;;20.23;3.80;;;11.90;77.30;;;;;;5049476;28;20026;-75
2022/01/03 10:43:38;;;;;;;23.88;5.50;;;12.00;77.20;;;;;;5042804;28;20052;-74
2022/01/03 10:46:37;;;;;;;22.08;4.60;;;12.00;76.90;;;;;;5043222;28;20554;-76
2022/01/03 10:49:10;;;;;;;23.27;4.65;;;12.00;76.60;;;;;;5037446;28;20179;-75
2022/01/03 10:51:36;;;;;;;22.35;5.15;;;11.90;76.80;;;;;;5031954;28;20483;-75
2022/01/03 10:54:06;;;;;;;19.90;3.42;;;11.90;77.00;;;;;;5031720;28;20033;-75
2022/01/03 10:56:40;;;;;;;22.13;3.97;;;11.90;77.20;;;;;;5040064;28;20083;-75
2022/01/03 10:59:15;;;;;;;21.45;3.65;;;12.00;77.40;;;;;;5050691;28;20387;-75
2022/01/03 11:01:43;;;;;;;16.80;4.63;;;12.30;76.80;;;;;;5036282;28;20033;-75
2022/01/03 11:04:13;;;;;;;20.45;4.30;;;12.50;76.20;;;;;;5043035;28;20026;-75
2022/01/03 11:11:55;;;;;;;19.83;4.22;;;13.00;74.20;;;;;;5038622;28;20530;-74
2022/01/03 11:14:36;;;;;;;25.70;4.70;;;13.00;74.10;;;;;;5048608;28;20036;-75
2022/01/03 11:17:22;;;;;;;22.13;4.18;;;12.90;74.00;;;;;;5047731;28;20040;-75
2022/01/03 11:19:47;;;;;;;18.83;4.65;;;12.90;74.30;;;;;;5042596;28;20025;-75
2022/01/03 11:22:47;;;;;;;20.90;4.35;;;12.80;74.40;;;;;;5042789;28;20033;-75
2022/01/03 11:25:12;;;;;;;25.40;4.75;;;12.70;74.30;;;;;;5054428;28;20487;-74
2022/01/03 11:27:40;;;;;;;19.73;3.97;;;12.50;74.80;;;;;;5045472;28;20033;-74
2022/01/03 11:30:11;;;;;;;16.17;3.63;;;12.40;75.20;;;;;;5046972;28;20029;-74
2022/01/03 11:32:42;;;;;;;22.35;4.88;;;12.40;75.40;;;;;;5051041;28;20037;-74
2022/01/03 11:35:09;;;;;;;28.42;4.85;;;12.30;75.50;;;;;;5044931;28;20029;-75
2022/01/03 11:37:39;;;;;;;21.63;4.57;;;12.40;75.50;;;;;;5046229;28;20025;-75
2022/01/03 11:40:06;;;;;;;23.52;4.22;;;12.50;75.00;;;;;;5037965;28;20056;-75
2022/01/03 11:42:36;;;;;;;21.33;4.03;;;12.50;75.10;;;;;;5039397;28;20120;-75
2022/01/03 11:45:02;;;;;;;23.30;5.57;;;12.40;75.30;;;;;;5048390;28;20018;-75
2022/01/03 11:47:29;;;;;;;26.83;4.60;;;12.40;75.70;;;;;;5033922;28;20044;-75
2022/01/03 11:49:54;;;;;;;23.65;4.47;;;12.40;75.30;;;;;;5035432;28;20504;-75
2022/01/03 11:52:21;;;;;;;19.75;3.95;;;12.40;75.40;;;;;;5045462;28;20029;-75
2022/01/03 11:54:49;;;;;;;24.67;4.75;;;12.30;75.90;;;;;;5059694;28;20078;-75
2022/01/03 11:57:23;;;;;;;19.52;3.90;;;12.30;76.20;;;;;;5050378;28;20040;-75
2022/01/03 12:05:48;;;;;;;17.52;3.70;;;12.20;76.50;;;;;;5048199;28;20044;-75
2022/01/03 12:08:24;;;;;;;22.08;4.03;;;12.20;76.50;;;;;;5046158;28;20064;-75
2022/01/03 12:10:51;;;;;;;22.90;4.43;;;12.10;76.40;;;;;;5046111;28;20029;-75
2022/01/03 12:13:16;;;;;;;19.85;4.68;;;12.10;76.70;;;;;;5052093;28;20364;-75
2022/01/03 12:15:42;;;;;;;26.40;5.25;;;12.10;76.60;;;;;;5051856;28;20031;-75
2022/01/03 12:18:28;;;;;;;19.75;4.50;;;12.10;76.70;;;;;;5051818;28;20065;-75
2022/01/03 12:20:54;;;;;;;19.60;4.32;;;12.10;76.80;;;;;;5051541;28;20039;-75
2022/01/03 12:23:39;;;;;;;24.70;4.22;;;12.10;77.00;;;;;;5038627;28;20032;-75
2022/01/03 12:26:14;;;;;;;27.17;4.75;;;12.20;76.90;;;;;;5051558;28;20130;-75
2022/01/03 12:29:05;;;;;;;21.63;3.95;;;12.20;76.90;;;;;;5051658;28;20056;-75
2022/01/03 12:32:02;;;;;;;17.48;4.28;;;12.20;76.90;;;;;;5037967;28;20026;-75
2022/01/03 12:34:28;;;;;;;18.77;4.43;;;12.30;76.90;;;;;;5051677;28;20021;-75
2022/01/03 12:37:19;;;;;;;16.88;3.83;;;12.30;76.50;;;;;;5051655;28;20096;-75
2022/01/03 12:40:04;;;;;;;19.20;4.13;;;12.20;76.60;;;;;;5051170;28;20033;-75
2022/01/03 12:45:29;;;;;;;18.15;4.38;;;12.20;76.70;;;;;;5053231;28;20036;-75
2022/01/03 12:48:15;;;;;;;17.88;3.47;;;12.10;76.80;;;;;;5043830;28;20040;-75
2022/01/03 12:50:45;;;;;;;23.95;4.65;;;12.10;76.90;;;;;;5054067;28;20036;-75
2022/01/03 12:53:29;;;;;;;21.73;3.63;;;12.10;77.00;;;;;;5052509;28;20057;-75
2022/01/03 12:56:10;;;;;;;20.30;4.00;;;12.10;77.00;;;;;;5046128;28;20032;-75
2022/01/03 12:58:35;;;;;;;18.98;4.00;;;12.10;76.90;;;;;;5047674;28;20507;-75
2022/01/03 13:01:06;;;;;;;21.30;3.63;;;12.10;77.00;;;;;;5052105;28;20048;-75
2022/01/03 13:03:49;;;;;;;22.13;4.03;;;12.10;76.90;;;;;;5048032;28;20043;-75
2022/01/03 13:06:24;;;;;;;15.73;4.20;;;12.00;76.70;;;;;;5048617;28;20517;-75
2022/01/03 13:08:56;;;;;;;16.20;3.58;;;12.00;76.70;;;;;;5060791;28;20078;-75
2022/01/03 13:11:49;;;;;;;14.98;3.13;;;12.00;76.50;;;;;;5049961;28;20107;-75
2022/01/03 13:14:23;;;;;;;19.88;3.53;;;12.00;76.60;;;;;;5051023;28;20483;-75